This is the latest recevied weather packets stored in our database for station/object LRSM. If no packets are shown the sender has not sent any weather packets the latest 10 day(s).
| Time | Temp. | Humidity | Pressure | Rain* | Wind** | Luminosity | Snow |
|---|---|---|---|---|---|---|---|
| 1777878214 | 17.22° C | 45% | 1020 hPa | - | - | - | - |
| 1777877312 | 15° C | 51% | 1020 hPa | - | - | - | - |
| 1777876413 | 15° C | 51% | 1020 hPa | - | - | - | - |
| 1777875514 | 12.78° C | 55% | 1020 hPa | - | - | - | - |
| 1777874613 | 12.78° C | 55% | 1020 hPa | - | - | - | - |
| 1777873713 | 11.11° C | 62% | 1020 hPa | - | - | - | - |
| 1777872814 | 11.11° C | 62% | 1020 hPa | - | - | - | - |
| 1777871913 | 10° C | 62% | 1020 hPa | - | - | - | - |
| 1777871022 | 10° C | 62% | 1020 hPa | - | - | - | - |
| 1777870113 | 7.78° C | 71% | 1019 hPa | - | - | - | - |
| 1777869212 | 7.78° C | 71% | 1019 hPa | - | - | - | - |
| 1777868313 | 6.11° C | 76% | 1019 hPa | - | - | - | - |
| 1777867412 | 6.11° C | 76% | 1019 hPa | - | - | - | - |
| 1777866513 | 5° C | 76% | 1019 hPa | - | - | - | - |
| 1777865612 | 5° C | 76% | 1019 hPa | - | - | - | - |
| 1777864712 | 3.89° C | 81% | 1019 hPa | - | - | - | - |
| 1777863892 | 3.89° C | 81% | 1019 hPa | - | - | - | - |
| 1777862913 | 3.89° C | 81% | 1019 hPa | - | - | - | - |
| 1777862012 | 3.89° C | 81% | 1019 hPa | - | - | - | - |
| 1777861112 | 5° C | 76% | 1019 hPa | - | - | - | - |
| 1777860212 | 5° C | 76% | 1019 hPa | - | - | - | - |
| 1777859313 | 6.11° C | 71% | 1019 hPa | - | - | - | - |
| 1777858418 | 6.11° C | 71% | 1019 hPa | - | - | - | - |
| 1777857591 | 7.78° C | 66% | 1019 hPa | - | - | - | - |
| 1777856613 | 7.78° C | 66% | 1019 hPa | - | - | - | - |
* Rain since midnight (hover to see other rain measurements)
** Current wind speed in m/s (hover to see current wind gust speed)